Time;durP1;ratioP1;P1;durP2;ratioP2;P2;SDS_P1;SDS_P2;PMS_P1;PMS_P2;Temp;Humidity;BMP_temperature;BMP_pressure;BME280_temperature;BME280_humidity;BME280_pressure;Samples;Min_cycle;Max_cycle;Signal;HPM_P1;HPM_P2
2022/08/19 00:01:34;;;;;;;35.80;23.70;;;17.80;99.90;;;;;;5016675;28;20187;-60
2022/08/19 00:04:02;;;;;;;38.97;24.17;;;17.80;99.90;;;;;;5028072;28;20805;-59
2022/08/19 00:06:29;;;;;;;30.60;23.13;;;17.80;99.90;;;;;;5029117;28;20418;-60
2022/08/19 00:08:56;;;;;;;36.33;24.27;;;17.70;99.90;;;;;;5025875;28;20946;-60
2022/08/19 00:11:22;;;;;;;41.97;23.90;;;17.70;99.90;;;;;;5024734;28;20426;-59
2022/08/19 00:13:49;;;;;;;34.27;24.30;;;17.70;99.90;;;;;;5026609;28;20458;-60
2022/08/19 00:16:20;;;;;;;30.07;22.03;;;17.60;99.90;;;;;;5022606;28;20218;-59
2022/08/19 00:18:46;;;;;;;31.67;22.60;;;17.60;99.90;;;;;;5027490;28;20522;-59
2022/08/19 00:21:12;;;;;;;32.50;22.27;;;17.60;99.90;;;;;;5028507;28;20411;-60
2022/08/19 00:23:37;;;;;;;31.33;21.90;;;17.60;99.90;;;;;;5019253;28;20466;-60
2022/08/19 00:26:04;;;;;;;32.23;20.40;;;17.60;99.90;;;;;;5027381;28;20184;-60
2022/08/19 00:28:30;;;;;;;33.47;22.73;;;17.60;99.90;;;;;;5028183;28;20282;-59
2022/08/19 00:30:56;;;;;;;31.87;22.63;;;17.60;99.90;;;;;;5021453;28;20450;-60
2022/08/19 00:33:22;;;;;;;30.93;21.60;;;17.60;99.90;;;;;;5024892;28;21054;-60
2022/08/19 00:35:47;;;;;;;34.10;22.30;;;17.60;99.90;;;;;;5023952;28;20282;-59
2022/08/19 00:38:13;;;;;;;33.97;21.87;;;17.60;99.90;;;;;;5027983;28;20164;-60
2022/08/19 00:40:41;;;;;;;34.70;21.67;;;17.60;99.90;;;;;;5028150;28;20172;-59
2022/08/19 00:43:12;;;;;;;32.67;21.57;;;17.60;99.90;;;;;;5018821;28;20412;-60
2022/08/19 00:45:43;;;;;;;35.00;21.87;;;17.60;99.90;;;;;;5012595;28;20469;-60
2022/08/19 00:48:10;;;;;;;31.40;21.60;;;17.60;99.90;;;;;;5021276;28;20908;-60
2022/08/19 00:50:38;;;;;;;28.47;21.40;;;17.60;99.90;;;;;;5029283;28;20484;-59
2022/08/19 00:53:04;;;;;;;31.53;21.30;;;17.60;99.90;;;;;;5031852;28;20478;-60
2022/08/19 00:55:32;;;;;;;36.03;21.50;;;17.50;99.90;;;;;;5029230;28;20571;-60
2022/08/19 00:58:01;;;;;;;28.97;21.03;;;17.60;99.90;;;;;;5020021;28;20172;-59
2022/08/19 01:00:29;;;;;;;29.10;20.60;;;17.60;99.90;;;;;;5024538;28;20974;-59
2022/08/19 01:02:55;;;;;;;24.83;18.30;;;17.60;99.90;;;;;;5028719;28;20558;-59
2022/08/19 01:05:24;;;;;;;28.00;20.50;;;17.60;99.90;;;;;;5030686;28;20509;-60
2022/08/19 01:07:50;;;;;;;29.40;21.30;;;17.60;99.90;;;;;;5022106;28;20176;-59
2022/08/19 01:10:20;;;;;;;33.27;23.17;;;17.60;99.90;;;;;;5031734;28;20423;-60
2022/08/19 01:12:47;;;;;;;29.37;21.83;;;17.60;99.90;;;;;;5027825;28;20441;-60
2022/08/19 01:15:17;;;;;;;29.27;20.87;;;17.60;99.90;;;;;;5026605;28;20911;-59
2022/08/19 01:17:44;;;;;;;33.23;22.47;;;17.60;99.90;;;;;;5026678;28;20477;-59
2022/08/19 01:20:13;;;;;;;35.20;22.43;;;17.60;99.90;;;;;;5018544;28;20430;-60
2022/08/19 01:23:08;;;;;;;31.43;21.40;;;17.60;99.90;;;;;;5027780;28;20437;-60
2022/08/19 01:25:43;;;;;;;32.13;22.03;;;17.60;99.90;;;;;;5030472;28;20470;-59
2022/08/19 01:28:25;;;;;;;32.03;21.60;;;17.60;99.90;;;;;;5023484;28;20432;-59
2022/08/19 01:30:51;;;;;;;31.43;21.67;;;17.60;99.90;;;;;;5022203;28;20415;-59
2022/08/19 01:33:19;;;;;;;29.27;20.27;;;17.60;99.90;;;;;;5030354;28;20465;-60
2022/08/19 01:35:44;;;;;;;33.53;21.10;;;17.60;99.90;;;;;;5029205;28;20529;-60
2022/08/19 01:38:23;;;;;;;34.33;23.83;;;17.60;99.90;;;;;;5030456;28;20526;-59
2022/08/19 01:40:49;;;;;;;34.37;22.67;;;17.60;99.90;;;;;;5031081;28;20183;-60
2022/08/19 01:43:15;;;;;;;33.90;21.27;;;17.60;99.90;;;;;;5028429;28;20453;-60
2022/08/19 01:45:41;;;;;;;36.73;23.50;;;17.60;99.90;;;;;;5028475;28;20207;-60
2022/08/19 01:48:08;;;;;;;33.40;22.17;;;17.60;99.90;;;;;;5023186;28;20431;-59
2022/08/19 01:50:34;;;;;;;33.60;22.67;;;17.60;99.90;;;;;;5026447;28;20497;-60
2022/08/19 01:53:03;;;;;;;33.00;23.37;;;17.60;99.90;;;;;;5029474;28;20462;-59
2022/08/19 01:55:29;;;;;;;35.83;23.50;;;17.60;99.90;;;;;;5029718;28;20443;-59
2022/08/19 01:57:59;;;;;;;36.67;24.33;;;17.60;99.90;;;;;;5025663;28;20457;-60
2022/08/19 02:00:27;;;;;;;36.70;22.63;;;17.60;99.90;;;;;;5030469;28;20415;-60
2022/08/19 02:02:53;;;;;;;36.50;24.23;;;17.60;99.90;;;;;;5022576;28;20464;-60
2022/08/19 02:05:21;;;;;;;43.93;24.57;;;17.60;99.90;;;;;;5030067;28;20469;-59
2022/08/19 02:07:47;;;;;;;35.77;24.17;;;17.60;99.90;;;;;;5030096;28;20472;-59
2022/08/19 02:10:20;;;;;;;38.33;23.93;;;17.60;99.90;;;;;;5030771;28;20484;-59
2022/08/19 02:12:46;;;;;;;41.23;24.33;;;17.60;99.90;;;;;;5025101;28;20916;-59
2022/08/19 02:15:12;;;;;;;37.57;24.73;;;17.60;99.90;;;;;;5028300;28;21057;-60
2022/08/19 02:17:38;;;;;;;37.77;24.33;;;17.60;99.90;;;;;;5026849;28;20856;-59
2022/08/19 02:20:06;;;;;;;43.03;23.93;;;17.60;99.90;;;;;;5030036;28;20431;-60
2022/08/19 02:22:31;;;;;;;37.03;24.57;;;17.60;99.90;;;;;;5021476;28;20428;-59
2022/08/19 02:24:57;;;;;;;40.53;25.70;;;17.60;99.90;;;;;;5029468;28;20453;-59
2022/08/19 02:27:23;;;;;;;40.83;24.27;;;17.60;99.90;;;;;;5029167;28;20176;-59
2022/08/19 02:29:50;;;;;;;41.70;24.23;;;17.60;99.90;;;;;;5030627;28;20299;-59
2022/08/19 02:32:18;;;;;;;36.40;24.00;;;17.60;99.90;;;;;;5024958;28;20262;-59
2022/08/19 02:34:44;;;;;;;37.93;24.83;;;17.60;99.90;;;;;;5026601;28;20469;-60
2022/08/19 02:38:24;;;;;;;41.00;26.20;;;17.60;99.90;;;;;;5026125;28;20453;-60
2022/08/19 02:39:55;;;;;;;39.37;24.77;;;17.60;99.90;;;;;;5025168;28;20668;-60
2022/08/19 02:42:21;;;;;;;35.20;24.13;;;17.60;99.90;;;;;;5027146;28;20505;-59
2022/08/19 02:44:46;;;;;;;41.93;25.43;;;17.60;99.90;;;;;;5025427;28;20191;-60
2022/08/19 02:47:14;;;;;;;39.17;24.07;;;17.60;99.90;;;;;;5027298;28;20184;-59
2022/08/19 02:49:39;;;;;;;40.37;26.10;;;17.60;99.90;;;;;;5021780;28;20183;-59
2022/08/19 02:52:05;;;;;;;39.57;26.70;;;17.60;99.90;;;;;;5029305;28;20442;-59
2022/08/19 02:54:31;;;;;;;40.33;26.33;;;17.60;99.90;;;;;;5029180;28;20212;-59
2022/08/19 02:56:56;;;;;;;38.17;24.50;;;17.60;99.90;;;;;;5027530;28;20183;-59
2022/08/19 02:59:22;;;;;;;42.83;27.23;;;17.60;99.90;;;;;;5028672;28;20179;-60
2022/08/19 03:01:48;;;;;;;40.17;25.57;;;17.60;99.90;;;;;;5028119;28;20259;-60
2022/08/19 03:04:15;;;;;;;35.40;24.63;;;17.60;99.90;;;;;;5026408;28;20775;-60
2022/08/19 03:06:44;;;;;;;38.17;25.17;;;17.50;99.90;;;;;;5028553;28;20183;-60
2022/08/19 03:09:10;;;;;;;40.67;25.47;;;17.50;99.90;;;;;;5027772;28;20430;-61
2022/08/19 03:11:37;;;;;;;41.80;24.40;;;17.60;99.90;;;;;;5024424;28;20438;-60
2022/08/19 03:14:05;;;;;;;41.70;24.50;;;17.50;99.90;;;;;;5013574;28;20450;-59
2022/08/19 03:16:34;;;;;;;41.83;26.10;;;17.50;99.90;;;;;;5027690;28;20462;-60
2022/08/19 03:19:01;;;;;;;43.70;26.73;;;17.50;99.90;;;;;;5027551;28;20488;-60
2022/08/19 03:21:29;;;;;;;39.53;25.90;;;17.50;99.90;;;;;;5028699;28;20407;-60
2022/08/19 03:23:57;;;;;;;42.53;26.63;;;17.50;99.90;;;;;;5026832;28;20453;-59
2022/08/19 03:26:23;;;;;;;42.20;25.13;;;17.50;99.90;;;;;;5027758;28;20430;-60
2022/08/19 03:28:49;;;;;;;45.33;27.57;;;17.50;99.90;;;;;;5028765;28;20541;-60
2022/08/19 03:31:19;;;;;;;43.93;26.47;;;17.50;99.90;;;;;;5026980;28;20180;-59
2022/08/19 03:33:45;;;;;;;41.57;25.43;;;17.50;99.90;;;;;;5026790;28;20480;-60
2022/08/19 03:36:15;;;;;;;46.20;26.50;;;17.50;99.90;;;;;;5027777;28;20500;-59
2022/08/19 03:38:43;;;;;;;48.37;26.70;;;17.50;99.90;;;;;;5025146;28;20462;-59
2022/08/19 03:41:12;;;;;;;44.13;27.07;;;17.50;99.90;;;;;;5028447;28;20423;-59
2022/08/19 03:43:39;;;;;;;41.37;27.20;;;17.50;99.90;;;;;;5027926;28;20458;-59
2022/08/19 03:46:12;;;;;;;44.33;25.70;;;17.50;99.90;;;;;;5026007;28;20456;-59
2022/08/19 03:48:39;;;;;;;43.83;26.37;;;17.50;99.90;;;;;;5022283;28;20438;-60
2022/08/19 03:51:06;;;;;;;44.00;26.43;;;17.50;99.90;;;;;;5029508;28;20831;-59
2022/08/19 03:53:33;;;;;;;45.70;27.23;;;17.50;99.90;;;;;;5024505;28;20968;-59
2022/08/19 03:55:59;;;;;;;46.17;28.77;;;17.50;99.90;;;;;;5016150;28;20986;-59
2022/08/19 03:58:28;;;;;;;42.00;25.50;;;17.50;99.90;;;;;;5026650;28;20437;-60
2022/08/19 04:00:57;;;;;;;45.93;27.20;;;17.40;99.90;;;;;;5027290;28;20445;-60
2022/08/19 04:03:24;;;;;;;47.73;26.40;;;17.50;99.90;;;;;;5027629;28;21037;-59
2022/08/19 04:05:50;;;;;;;41.07;25.87;;;17.50;99.90;;;;;;5023198;28;20902;-60
2022/08/19 04:08:19;;;;;;;42.10;26.80;;;17.50;99.90;;;;;;5022203;28;20469;-59
2022/08/19 04:10:46;;;;;;;43.00;27.03;;;17.50;99.90;;;;;;5026615;28;20469;-59
2022/08/19 04:13:11;;;;;;;44.33;27.17;;;17.50;99.90;;;;;;5028477;28;20462;-59
2022/08/19 04:15:41;;;;;;;47.67;27.43;;;17.40;99.90;;;;;;5025888;28;20453;-59
2022/08/19 04:18:09;;;;;;;38.67;26.27;;;17.40;99.90;;;;;;5024535;28;20203;-59
2022/08/19 04:20:46;;;;;;;47.40;27.93;;;17.40;99.90;;;;;;5028280;28;20447;-59
2022/08/19 04:23:13;;;;;;;55.13;29.13;;;17.40;99.90;;;;;;5022065;28;20492;-60
2022/08/19 04:25:42;;;;;;;42.63;25.50;;;17.40;99.90;;;;;;5018084;28;20920;-59
2022/08/19 04:28:09;;;;;;;44.47;27.93;;;17.40;99.90;;;;;;5029357;28;20460;-59
2022/08/19 04:30:44;;;;;;;46.47;28.00;;;17.40;99.90;;;;;;5030388;28;20461;-60
2022/08/19 04:33:11;;;;;;;46.87;27.63;;;17.40;99.90;;;;;;5029834;28;20495;-59
2022/08/19 04:35:39;;;;;;;44.93;27.70;;;17.40;99.90;;;;;;5028247;28;20458;-59
2022/08/19 04:38:06;;;;;;;45.10;27.33;;;17.40;99.90;;;;;;5024207;28;20430;-59
2022/08/19 04:43:16;;;;;;;42.40;26.30;;;17.40;99.90;;;;;;5023071;28;20480;-59
2022/08/19 04:45:43;;;;;;;41.33;27.00;;;17.40;99.90;;;;;;5020209;28;20454;-59
2022/08/19 04:48:09;;;;;;;47.20;28.47;;;17.50;99.90;;;;;;5029307;28;20176;-59
2022/08/19 04:50:35;;;;;;;41.97;26.60;;;17.50;99.90;;;;;;5032487;28;20981;-59
2022/08/19 04:53:01;;;;;;;43.00;25.90;;;17.50;99.90;;;;;;5029099;28;20443;-59
2022/08/19 04:55:27;;;;;;;45.60;26.70;;;17.50;99.90;;;;;;5023581;28;20497;-59
2022/08/19 04:57:54;;;;;;;44.40;26.20;;;17.50;99.90;;;;;;5030716;28;20175;-59
2022/08/19 05:00:19;;;;;;;45.07;26.07;;;17.50;99.90;;;;;;5027819;28;20176;-60
2022/08/19 05:02:45;;;;;;;48.77;27.20;;;17.50;99.90;;;;;;5027248;28;20434;-59
2022/08/19 05:05:12;;;;;;;45.27;27.30;;;17.50;99.90;;;;;;5028994;28;20650;-59
2022/08/19 05:07:37;;;;;;;46.80;26.40;;;17.50;99.90;;;;;;5028670;28;20174;-60
2022/08/19 05:10:06;;;;;;;42.83;25.50;;;17.50;99.90;;;;;;5025070;28;20505;-60
2022/08/19 05:12:32;;;;;;;39.97;26.50;;;17.50;99.90;;;;;;5028372;28;20168;-59
2022/08/19 05:14:58;;;;;;;41.20;25.27;;;17.50;99.90;;;;;;5028756;28;20461;-59
2022/08/19 05:17:27;;;;;;;47.30;25.73;;;17.50;99.90;;;;;;5026170;28;20187;-59
2022/08/19 05:22:39;;;;;;;35.23;23.93;;;17.50;99.90;;;;;;5029269;28;20972;-59
2022/08/19 05:25:13;;;;;;;36.53;24.00;;;17.50;99.90;;;;;;5024304;28;20446;-59
2022/08/19 05:27:39;;;;;;;38.43;24.90;;;17.50;99.90;;;;;;5028834;28;20434;-59
2022/08/19 05:30:05;;;;;;;35.43;24.00;;;17.50;99.90;;;;;;5031282;28;20402;-59
2022/08/19 05:32:31;;;;;;;41.37;24.87;;;17.50;99.90;;;;;;5025429;28;20999;-59
2022/08/19 05:34:56;;;;;;;41.30;27.27;;;17.40;99.90;;;;;;5029007;28;20505;-59
2022/08/19 05:37:23;;;;;;;40.50;26.87;;;17.40;99.90;;;;;;5025403;28;20696;-59
2022/08/19 05:39:49;;;;;;;46.57;27.53;;;17.40;99.90;;;;;;5029897;28;20214;-60
2022/08/19 05:42:16;;;;;;;42.23;25.80;;;17.40;99.90;;;;;;5030249;28;21041;-59
2022/08/19 05:44:48;;;;;;;45.17;25.60;;;17.40;99.90;;;;;;5030166;28;20462;-59
2022/08/19 05:47:14;;;;;;;43.90;28.27;;;17.40;99.90;;;;;;5025629;28;20434;-60
2022/08/19 05:49:41;;;;;;;46.13;27.40;;;17.50;99.90;;;;;;5029699;28;20963;-59
2022/08/19 05:52:11;;;;;;;48.80;28.33;;;17.40;99.90;;;;;;5028955;28;20462;-59
2022/08/19 05:54:41;;;;;;;43.13;28.93;;;17.40;99.90;;;;;;5028544;28;20447;-59
2022/08/19 05:57:07;;;;;;;47.37;27.40;;;17.40;99.90;;;;;;5027274;28;20434;-60
2022/08/19 05:59:35;;;;;;;40.30;27.40;;;17.40;99.90;;;;;;5031089;28;20441;-60
2022/08/19 06:02:02;;;;;;;43.17;25.63;;;17.40;99.90;;;;;;5026665;28;20480;-59
2022/08/19 06:04:28;;;;;;;44.67;27.70;;;17.40;99.90;;;;;;5028703;28;20481;-59
2022/08/19 06:06:54;;;;;;;40.63;26.40;;;17.40;99.90;;;;;;5029712;28;20438;-60
2022/08/19 06:09:22;;;;;;;44.07;27.00;;;17.50;99.90;;;;;;5027683;28;20482;-59
2022/08/19 06:11:56;;;;;;;38.87;26.03;;;17.50;99.90;;;;;;5030137;28;20950;-59
2022/08/19 06:14:26;;;;;;;37.90;25.20;;;17.50;99.90;;;;;;5028732;28;20466;-59
2022/08/19 06:16:54;;;;;;;37.83;24.70;;;17.50;99.90;;;;;;5026864;28;20435;-60
2022/08/19 06:19:22;;;;;;;34.27;23.40;;;17.50;99.90;;;;;;5024109;28;21057;-59
2022/08/19 06:21:49;;;;;;;38.73;25.63;;;17.50;99.90;;;;;;5027161;28;20534;-59
2022/08/19 06:24:19;;;;;;;39.20;24.73;;;17.50;99.90;;;;;;5015612;28;20434;-59
2022/08/19 06:26:47;;;;;;;34.67;23.73;;;17.50;99.90;;;;;;5020985;28;20453;-60
2022/08/19 06:29:15;;;;;;;37.63;24.63;;;17.50;99.90;;;;;;5029432;28;20415;-59
2022/08/19 06:31:43;;;;;;;40.67;26.03;;;17.50;99.90;;;;;;5022096;28;20434;-59
2022/08/19 06:34:10;;;;;;;38.60;24.53;;;17.50;99.90;;;;;;5025285;28;20458;-59
2022/08/19 06:36:41;;;;;;;38.47;24.33;;;17.50;99.90;;;;;;5025938;28;20513;-59
2022/08/19 06:39:16;;;;;;;38.93;25.90;;;17.50;99.90;;;;;;5023864;28;20509;-60
2022/08/19 06:41:44;;;;;;;35.93;25.23;;;17.50;99.90;;;;;;5028336;28;20432;-59
2022/08/19 06:44:10;;;;;;;39.90;24.27;;;17.50;99.90;;;;;;5023394;28;20487;-59
2022/08/19 06:46:37;;;;;;;45.97;25.30;;;17.50;99.90;;;;;;5026716;28;20873;-59
2022/08/19 06:49:03;;;;;;;41.57;26.20;;;17.50;99.90;;;;;;5026236;28;20435;-59
2022/08/19 06:51:30;;;;;;;39.10;25.20;;;17.50;99.90;;;;;;5022235;28;20576;-59
2022/08/19 06:53:55;;;;;;;37.37;25.30;;;17.50;99.90;;;;;;5017157;28;20680;-59
2022/08/19 06:56:25;;;;;;;40.17;25.60;;;17.50;99.90;;;;;;5024942;28;20497;-59
2022/08/19 06:58:52;;;;;;;39.40;24.23;;;17.50;99.90;;;;;;5020973;28;20179;-59
2022/08/19 07:01:18;;;;;;;36.03;24.17;;;17.50;99.90;;;;;;5027011;28;20426;-59
2022/08/19 07:03:46;;;;;;;38.73;25.87;;;17.50;99.90;;;;;;5019997;28;20556;-59
2022/08/19 07:06:17;;;;;;;41.80;24.10;;;17.50;99.90;;;;;;5029005;28;20433;-60
2022/08/19 07:08:44;;;;;;;41.10;25.83;;;17.50;99.90;;;;;;5024033;28;20454;-59
2022/08/19 07:11:12;;;;;;;45.33;26.63;;;17.50;99.90;;;;;;5030143;28;20465;-59
2022/08/19 07:13:39;;;;;;;39.57;25.67;;;17.50;99.90;;;;;;5021955;28;20869;-59
2022/08/19 07:16:10;;;;;;;43.73;25.60;;;17.50;99.90;;;;;;5015060;28;20959;-59
2022/08/19 07:18:37;;;;;;;44.20;26.17;;;17.50;99.90;;;;;;5025115;28;20833;-59
2022/08/19 07:21:12;;;;;;;45.10;26.93;;;17.50;99.90;;;;;;5029467;28;20413;-59
2022/08/19 07:23:38;;;;;;;40.47;25.90;;;17.50;99.90;;;;;;5016868;28;20535;-60
2022/08/19 07:26:06;;;;;;;47.10;27.30;;;17.50;99.90;;;;;;5015243;28;20459;-60
2022/08/19 07:28:32;;;;;;;43.63;27.20;;;17.50;99.90;;;;;;5016043;28;20176;-60
2022/08/19 07:30:58;;;;;;;63.67;27.77;;;17.50;99.90;;;;;;5020085;28;20530;-59
2022/08/19 07:33:23;;;;;;;44.13;27.50;;;17.50;99.90;;;;;;5020734;28;20199;-59
2022/08/19 07:35:49;;;;;;;43.93;27.60;;;17.50;99.90;;;;;;5024843;28;20238;-60
2022/08/19 07:38:16;;;;;;;53.13;28.20;;;17.50;99.90;;;;;;5027479;28;20167;-60
2022/08/19 07:40:42;;;;;;;50.53;26.17;;;17.50;99.90;;;;;;5028821;28;20421;-54
2022/08/19 07:43:08;;;;;;;45.70;27.00;;;17.60;99.90;;;;;;5025224;28;20454;-54
2022/08/19 07:45:34;;;;;;;49.60;27.23;;;17.50;99.90;;;;;;5027310;28;20466;-53
2022/08/19 07:48:00;;;;;;;52.00;27.80;;;17.60;99.90;;;;;;5029757;28;20238;-53
2022/08/19 07:50:26;;;;;;;54.77;27.93;;;17.60;99.90;;;;;;5022066;28;20649;-53
2022/08/19 07:52:52;;;;;;;46.93;27.87;;;17.60;99.90;;;;;;5023890;28;20422;-53
2022/08/19 07:55:22;;;;;;;49.40;28.60;;;17.60;99.90;;;;;;5021216;28;21051;-53
2022/08/19 07:57:48;;;;;;;47.33;27.00;;;17.60;99.90;;;;;;5027464;28;20438;-54
2022/08/19 08:00:14;;;;;;;46.90;27.00;;;17.60;99.90;;;;;;5029325;28;20450;-53
2022/08/19 08:02:42;;;;;;;44.80;27.07;;;17.60;99.90;;;;;;5029103;28;20642;-53
2022/08/19 08:10:37;;;;;;;53.83;28.60;;;17.60;99.90;;;;;;5030822;28;20441;-53
2022/08/19 08:13:05;;;;;;;52.90;29.20;;;17.70;99.90;;;;;;5028568;28;20438;-52
2022/08/19 08:15:31;;;;;;;49.40;27.57;;;17.70;99.90;;;;;;5027089;28;20602;-53
2022/08/19 08:17:57;;;;;;;49.60;27.10;;;17.70;99.90;;;;;;5023095;28;20423;-52
2022/08/19 08:20:24;;;;;;;50.17;28.87;;;17.70;99.90;;;;;;5031515;28;20436;-54
2022/08/19 08:25:35;;;;;;;46.77;28.10;;;17.70;99.90;;;;;;5025443;28;20465;-54
2022/08/19 08:28:02;;;;;;;54.23;29.73;;;17.70;99.90;;;;;;5021735;28;20951;-54
2022/08/19 08:30:29;;;;;;;48.80;27.77;;;17.70;99.90;;;;;;5028347;28;20434;-53
2022/08/19 08:32:55;;;;;;;45.83;27.37;;;17.70;99.90;;;;;;5010837;28;20518;-53
2022/08/19 08:35:22;;;;;;;47.57;27.70;;;17.80;99.90;;;;;;5026434;28;20542;-54
2022/08/19 08:37:51;;;;;;;44.93;27.77;;;17.80;99.90;;;;;;5028305;28;20172;-53
2022/08/19 08:40:49;;;;;;;48.73;28.10;;;17.80;99.90;;;;;;5029244;28;20423;-53
2022/08/19 08:43:30;;;;;;;51.80;29.10;;;17.80;99.90;;;;;;5027069;28;20935;-54
2022/08/19 08:46:21;;;;;;;46.60;28.20;;;17.80;99.90;;;;;;5030954;28;20430;-54
2022/08/19 08:49:03;;;;;;;45.63;26.07;;;17.80;99.90;;;;;;5021976;28;20430;-54
2022/08/19 08:51:38;;;;;;;50.80;28.20;;;17.80;99.90;;;;;;5018432;28;20442;-53
2022/08/19 08:54:09;;;;;;;44.57;26.70;;;17.80;99.90;;;;;;5017645;28;20469;-55
2022/08/19 08:56:42;;;;;;;43.53;27.03;;;17.80;99.90;;;;;;5026324;28;20441;-53
2022/08/19 08:59:40;;;;;;;47.90;27.93;;;17.80;99.90;;;;;;5023114;28;21118;-53
2022/08/19 09:02:06;;;;;;;44.93;27.70;;;17.80;99.90;;;;;;5021995;28;20900;-53
2022/08/19 09:04:35;;;;;;;46.07;28.20;;;17.70;99.90;;;;;;5027221;28;20891;-53
2022/08/19 09:07:27;;;;;;;49.20;28.80;;;17.80;99.90;;;;;;5027569;28;20458;-54
2022/08/19 09:10:03;;;;;;;49.67;28.90;;;17.80;99.90;;;;;;5023888;28;20466;-53
2022/08/19 09:12:53;;;;;;;46.30;27.90;;;17.80;99.90;;;;;;5019575;28;20523;-53
2022/08/19 09:15:28;;;;;;;41.33;25.97;;;17.70;99.90;;;;;;5028627;28;20515;-54
2022/08/19 09:17:53;;;;;;;48.80;29.57;;;17.70;99.90;;;;;;5026263;28;20958;-54
2022/08/19 09:20:22;;;;;;;40.03;26.00;;;17.70;99.90;;;;;;5028675;28;20454;-54
2022/08/19 09:22:49;;;;;;;45.73;28.23;;;17.70;99.90;;;;;;5029406;28;20172;-52
2022/08/19 09:25:20;;;;;;;44.93;27.43;;;17.70;99.90;;;;;;5032760;28;20790;-53
2022/08/19 09:27:46;;;;;;;44.27;27.63;;;17.70;99.90;;;;;;5016365;28;20450;-54
2022/08/19 09:30:21;;;;;;;45.50;28.70;;;17.70;99.90;;;;;;5016560;28;20443;-54
2022/08/19 09:32:48;;;;;;;45.57;27.90;;;17.70;99.90;;;;;;5031919;28;20417;-54
2022/08/19 09:35:15;;;;;;;45.00;27.30;;;17.70;99.90;;;;;;5023459;28;20466;-55
2022/08/19 09:37:42;;;;;;;42.30;27.20;;;17.70;99.90;;;;;;5034227;28;20841;-53
2022/08/19 09:40:09;;;;;;;43.47;26.27;;;17.70;99.90;;;;;;5032418;28;20439;-54
2022/08/19 09:42:35;;;;;;;41.70;26.90;;;17.60;99.90;;;;;;5025068;28;20461;-53
2022/08/19 09:45:04;;;;;;;45.53;28.43;;;17.60;99.90;;;;;;5029898;28;20485;-55
2022/08/19 09:47:30;;;;;;;44.00;27.87;;;17.60;99.90;;;;;;5032210;28;20218;-54
2022/08/19 09:49:57;;;;;;;45.60;29.60;;;17.60;99.90;;;;;;5030251;28;20438;-53
2022/08/19 09:52:22;;;;;;;47.03;27.97;;;17.60;99.90;;;;;;5030038;28;20168;-54
2022/08/19 09:54:52;;;;;;;47.63;30.37;;;17.60;99.90;;;;;;5027867;28;20540;-52
2022/08/19 09:57:18;;;;;;;42.83;28.10;;;17.60;99.90;;;;;;5018669;28;20168;-53
2022/08/19 09:59:44;;;;;;;45.53;29.43;;;17.60;99.90;;;;;;5030884;28;20443;-53
2022/08/19 10:02:10;;;;;;;44.17;28.20;;;17.60;99.90;;;;;;5021567;28;20180;-53
2022/08/19 10:07:21;;;;;;;44.83;29.37;;;17.60;99.90;;;;;;5032025;28;20179;-53
2022/08/19 10:09:47;;;;;;;47.40;30.50;;;17.60;99.90;;;;;;5032132;28;20834;-53
2022/08/19 10:12:15;;;;;;;48.07;29.33;;;17.60;99.90;;;;;;5030121;28;20423;-54
2022/08/19 10:14:40;;;;;;;44.63;29.47;;;17.60;99.90;;;;;;5028650;28;20294;-54
2022/08/19 10:17:06;;;;;;;51.23;30.87;;;17.60;99.90;;;;;;5023522;28;20534;-60
2022/08/19 10:19:35;;;;;;;49.37;28.87;;;17.60;99.90;;;;;;5021937;28;20191;-60
2022/08/19 10:22:05;;;;;;;47.80;29.93;;;17.60;99.90;;;;;;5019765;28;21942;-60
2022/08/19 10:24:31;;;;;;;45.23;29.03;;;17.60;99.90;;;;;;5030779;28;20435;-59
2022/08/19 10:26:57;;;;;;;48.27;28.50;;;17.60;99.90;;;;;;5011665;28;20427;-59
2022/08/19 10:29:23;;;;;;;50.97;28.83;;;17.60;99.90;;;;;;5024643;28;20496;-59
2022/08/19 10:31:48;;;;;;;48.93;29.90;;;17.50;99.90;;;;;;5028187;28;21022;-59
2022/08/19 10:34:14;;;;;;;41.13;26.60;;;17.60;99.90;;;;;;5023310;28;20236;-59
2022/08/19 10:36:39;;;;;;;44.83;27.70;;;17.50;99.90;;;;;;5023331;28;20176;-59
2022/08/19 10:39:11;;;;;;;46.80;27.87;;;17.50;99.90;;;;;;5024470;28;20249;-59
2022/08/19 10:41:39;;;;;;;45.43;27.83;;;17.50;99.90;;;;;;5030689;28;20317;-59
2022/08/19 10:44:09;;;;;;;43.60;28.13;;;17.50;99.90;;;;;;5028365;28;20522;-59
2022/08/19 10:46:44;;;;;;;40.73;27.23;;;17.50;99.90;;;;;;5029389;28;20488;-59
2022/08/19 10:49:11;;;;;;;45.53;27.67;;;17.50;99.90;;;;;;5023985;28;20427;-59
2022/08/19 10:56:50;;;;;;;42.93;28.20;;;17.40;99.90;;;;;;5022539;28;20529;-59
2022/08/19 10:57:09;;;;;;;41.57;27.00;;;17.40;99.90;;;;;;5024789;28;20565;-59
2022/08/19 10:59:35;;;;;;;41.80;27.37;;;17.40;99.90;;;;;;5030571;28;20498;-60
2022/08/19 11:02:04;;;;;;;41.77;27.80;;;17.40;99.90;;;;;;5024202;28;20180;-59
2022/08/19 11:04:31;;;;;;;38.60;27.47;;;17.40;99.90;;;;;;5026678;28;20596;-59
2022/08/19 11:06:57;;;;;;;45.97;28.80;;;17.30;99.90;;;;;;5027687;28;20426;-59
2022/08/19 11:09:25;;;;;;;40.87;26.87;;;17.40;99.90;;;;;;5027973;28;20460;-58
2022/08/19 11:11:53;;;;;;;38.20;24.80;;;17.40;99.90;;;;;;5020537;28;20595;-58
2022/08/19 11:14:20;;;;;;;37.60;26.20;;;17.40;99.90;;;;;;5019304;28;20467;-59
2022/08/19 11:16:47;;;;;;;36.37;25.20;;;17.40;99.90;;;;;;5029469;28;20417;-59
2022/08/19 11:19:15;;;;;;;38.40;25.17;;;17.40;99.90;;;;;;5023710;28;20520;-59
2022/08/19 11:21:44;;;;;;;32.83;23.80;;;17.40;99.90;;;;;;5023721;28;20521;-60
2022/08/19 11:24:12;;;;;;;37.13;23.80;;;17.40;99.90;;;;;;5026056;28;20446;-60
2022/08/19 11:26:39;;;;;;;36.83;24.37;;;17.40;99.90;;;;;;5024363;28;20414;-59
2022/08/19 11:29:06;;;;;;;36.13;24.93;;;17.40;99.90;;;;;;5029849;28;20438;-59
2022/08/19 11:31:38;;;;;;;40.50;24.50;;;17.40;99.90;;;;;;5030027;28;20440;-60
2022/08/19 11:34:06;;;;;;;36.47;24.37;;;17.40;99.90;;;;;;5025267;28;20569;-60
2022/08/19 11:36:33;;;;;;;41.50;25.97;;;17.40;99.90;;;;;;5021828;28;20431;-61
2022/08/19 11:38:59;;;;;;;37.27;25.80;;;17.40;99.90;;;;;;5026339;28;20484;-61
2022/08/19 11:41:25;;;;;;;33.50;23.90;;;17.40;99.90;;;;;;5026420;28;20528;-61
2022/08/19 11:43:53;;;;;;;43.17;27.20;;;17.40;99.90;;;;;;5029061;28;20465;-61
2022/08/19 11:46:20;;;;;;;39.13;27.00;;;17.40;99.90;;;;;;5027400;28;20516;-60
2022/08/19 11:48:47;;;;;;;41.40;27.40;;;17.40;99.90;;;;;;5026927;28;20449;-61
2022/08/19 11:51:15;;;;;;;41.40;27.03;;;17.50;99.90;;;;;;5029170;28;20820;-60
2022/08/19 11:53:41;;;;;;;41.40;28.27;;;17.50;99.90;;;;;;5026665;28;20474;-60
2022/08/19 11:56:08;;;;;;;39.50;27.83;;;17.50;99.90;;;;;;5028708;28;20781;-61
2022/08/19 11:58:34;;;;;;;48.27;29.83;;;17.50;99.90;;;;;;5024697;28;20640;-60
2022/08/19 12:01:00;;;;;;;41.87;27.00;;;17.50;99.90;;;;;;5021681;28;21131;-60
2022/08/19 12:03:26;;;;;;;38.00;27.97;;;17.50;99.90;;;;;;5019974;28;20966;-61
2022/08/19 12:05:51;;;;;;;45.03;29.40;;;17.50;99.90;;;;;;5028469;28;20198;-61
2022/08/19 12:08:18;;;;;;;39.40;26.40;;;17.50;99.90;;;;;;5024626;28;20176;-61
2022/08/19 12:10:45;;;;;;;38.53;26.50;;;17.50;99.90;;;;;;5028292;28;20210;-61
2022/08/19 12:13:18;;;;;;;44.27;28.30;;;17.50;99.90;;;;;;5024457;28;20965;-58
2022/08/19 12:15:46;;;;;;;44.20;27.83;;;17.50;99.90;;;;;;5018873;28;20454;-60
2022/08/19 12:18:13;;;;;;;45.10;28.40;;;17.50;99.90;;;;;;5026415;28;20434;-60
2022/08/19 12:20:41;;;;;;;44.00;29.07;;;17.50;99.90;;;;;;5029098;28;20816;-61
2022/08/19 12:23:11;;;;;;;47.13;29.20;;;17.50;99.90;;;;;;5028679;28;20488;-60
2022/08/19 12:25:51;;;;;;;48.80;30.40;;;17.50;99.90;;;;;;5025705;28;20442;-60
2022/08/19 12:28:22;;;;;;;45.10;30.67;;;17.60;99.90;;;;;;5025852;28;20417;-60
2022/08/19 12:30:50;;;;;;;43.07;28.73;;;17.60;99.90;;;;;;5020653;28;20484;-60
2022/08/19 12:33:17;;;;;;;42.93;29.63;;;17.60;99.90;;;;;;5020812;28;20522;-60
2022/08/19 12:35:46;;;;;;;43.00;29.27;;;17.60;99.90;;;;;;5025207;28;20987;-60
2022/08/19 12:38:12;;;;;;;40.13;27.70;;;17.70;99.90;;;;;;5029297;28;20803;-61
2022/08/19 12:40:39;;;;;;;41.30;27.83;;;17.70;99.90;;;;;;5028707;28;20422;-60
2022/08/19 12:43:06;;;;;;;39.30;27.27;;;17.70;99.90;;;;;;5028284;28;20423;-60
2022/08/19 12:45:32;;;;;;;40.97;27.60;;;17.70;99.90;;;;;;5020502;28;20538;-60
2022/08/19 12:47:58;;;;;;;40.13;28.57;;;17.80;99.90;;;;;;5021653;28;20525;-60
2022/08/19 12:50:24;;;;;;;43.23;28.20;;;17.80;99.90;;;;;;5025809;28;20168;-60
2022/08/19 12:52:51;;;;;;;40.53;29.27;;;17.80;99.90;;;;;;5032593;28;20407;-60